Helena Regional Airport
KHLN : now visible

Airfield :











YOU CAN JOIN US ON...

 
LOGIN :

Register | Disclaimer

   EN    FR    IT 

 









Legend :    VFR   Marginal VFR   IFR   Intensive IFR   Very Intensive IFR
Visi :
Ceiling :
>= 8 km
>= 3000ft
5 to 8 km
1000 to 3000 ft
1500m to 5 km
500 to 1000 ft
800 to 1500m
200 to 500 ft
< 800m
< 200 ft
Symbols :   Thunderstorms  Fog  Heavy snow  Heavy precipitations  Wind > 20 kt






- Airport Elevation : 3877 ft
- IATA code : HLN


KHLN - Helena Regional

CURRENT METAR :
  • 240753Z AUTO 29010KT 1/2SM SN FZFG VV006 M09/M11 A2998 RMK AO2 SLP217 P0008 T10891111

EXPIRED METARs :
  • 240653Z AUTO 30011KT 3/4SM -SN BR VV007 M08/M11 A2997 RMK AO2 SLP213 P0009 T10831106 410221083
  • 240553Z AUTO 30011KT 1/2SM SN FZFG VV007 M08/M10 A2995 RMK AO2 SLP206 P0006 60038 T10781100 11039 21078 53012

TAF KHLN
Valid from the 24 at 06:00 until the 25 at 06:00 UTC


240544Z 2406/2506 36015G22KT 3/4SM -SN BR VV005
TEMPO 2406/2410 1/4SM +SN BLSN FZFG VV001
FM241000 34018G30KT 1/2SM SN BLSN FZFG SCT005 OVC015
FM242000 35020G29KT 5SM -SN BLSN BR SCT015 OVC025
PROB30 2420/2502 2SM -SN BR SCT005 BKN015
FM250300 33010KT P6SM VCSH SCT015 BKN025
KZLC FIR / North America



MET'MAP, your aeronautical weather chart ! - Copyright ORBIFLY December 2007 - Disclaimer

ORBIFLY MET'MAP TEAM :

Programming & Development : Alexandra Zaïnal
Concept & original design : Baudouin d'Aumeries
Assistance for programming : Marc-Olivier Méhu
Technical & hardware support : Manuel Goepfert

Contact : metmap@orbifly.com




SOURCES & CREDITS :

   NOAA       Earth
Advisory